Time;durP1;ratioP1;P1;durP2;ratioP2;P2;SDS_P1;SDS_P2;PMS_P1;PMS_P2;Temp;Humidity;BMP_temperature;BMP_pressure;BME280_temperature;BME280_humidity;BME280_pressure;Samples;Min_cycle;Max_cycle;Signal;HPM_P1;HPM_P2
2023/03/13 00:01:12;;;;;;;;;3.00;0.00;;;;;-145.09;100.00;59365.97;5118161;27;45352;-81
2023/03/13 00:03:37;;;;;;;;;3.00;1.00;;;;;-145.09;100.00;59365.97;5099812;27;46455;-81
2023/03/13 00:06:03;;;;;;;;;4.00;1.00;;;;;-145.09;100.00;59365.97;5116420;27;67985;-81
2023/03/13 00:08:29;;;;;;;;;1.00;1.00;;;;;-145.09;100.00;59365.97;5118240;27;45440;-81
2023/03/13 00:10:54;;;;;;;;;1.50;1.50;;;;;-145.09;100.00;59365.97;5118263;27;45441;-82
2023/03/13 00:13:19;;;;;;;;;1.00;1.00;;;;;-145.09;100.00;59365.97;5117821;27;46370;-81
2023/03/13 00:15:45;;;;;;;;;3.00;1.00;;;;;-145.09;100.00;59365.97;5098876;27;61932;-81
2023/03/13 00:18:10;;;;;;;;;3.00;2.00;;;;;-145.09;100.00;59365.97;5099133;27;58109;-82
2023/03/13 00:20:36;;;;;;;;;3.00;2.00;;;;;-145.09;100.00;59365.97;5099823;27;45510;-82
2023/03/13 00:23:01;;;;;;;;;2.50;1.00;;;;;-145.09;100.00;59365.97;5117346;27;64787;-80
2023/03/13 00:25:26;;;;;;;;;2.75;1.00;;;;;-145.09;100.00;59365.97;5098994;27;57922;-81
2023/03/13 00:27:52;;;;;;;;;3.75;1.50;;;;;-145.09;100.00;59365.97;5118085;27;45313;-81
2023/03/13 00:30:17;;;;;;;;;1.00;1.00;;;;;-145.09;100.00;59365.97;5117537;27;45379;-82
2023/03/13 00:32:45;;;;;;;;;2.00;2.00;;;;;-145.09;100.00;59365.97;5099465;27;45553;-80
2023/03/13 00:35:11;;;;;;;;;0.50;0.25;;;;;-145.09;100.00;59365.97;5117839;27;45356;-81
2023/03/13 00:37:36;;;;;;;;;3.00;1.00;;;;;-145.09;100.00;59365.97;5117780;27;45308;-81
2023/03/13 00:40:03;;;;;;;;;1.75;1.00;;;;;-145.09;100.00;59365.97;5099097;27;53797;-81
2023/03/13 00:42:28;;;;;;;;;1.25;0.50;;;;;-145.09;100.00;59365.97;5117423;27;46353;-81
2023/03/13 00:44:53;;;;;;;;;0.00;0.00;;;;;-145.09;100.00;59365.97;5117267;27;45491;-82
2023/03/13 00:47:19;;;;;;;;;2.00;0.00;;;;;-145.09;100.00;59365.97;5117065;27;59672;-81
2023/03/13 00:49:44;;;;;;;;;1.25;0.50;;;;;-145.09;100.00;59365.97;5098478;27;64370;-82
2023/03/13 00:52:09;;;;;;;;;2.00;0.50;;;;;-145.09;100.00;59365.97;5116583;27;68820;-81
2023/03/13 00:54:35;;;;;;;;;0.00;0.00;;;;;-145.09;100.00;59365.97;5116585;27;62778;-82
2023/03/13 00:57:00;;;;;;;;;1.00;1.00;;;;;-145.09;100.00;59365.97;5116684;27;64411;-81
2023/03/13 00:59:25;;;;;;;;;3.00;1.00;;;;;-145.09;100.00;59365.97;5116609;27;57423;-81
2023/03/13 01:01:51;;;;;;;;;3.50;1.00;;;;;-145.09;100.00;59365.97;5116767;27;68403;-81
2023/03/13 01:04:18;;;;;;;;;0.50;0.50;;;;;-145.09;100.00;59365.97;5117473;27;45755;-82
2023/03/13 01:06:43;;;;;;;;;0.50;0.50;;;;;-145.09;100.00;59365.97;5099034;27;46448;-81
2023/03/13 01:09:12;;;;;;;;;2.25;1.00;;;;;-145.09;100.00;59365.97;5098548;27;54443;-81
2023/03/13 01:11:39;;;;;;;;;1.00;1.00;;;;;-145.09;100.00;59365.97;5117234;27;45505;-82
2023/03/13 01:14:08;;;;;;;;;1.25;1.00;;;;;-145.09;100.00;59365.97;5098052;27;45685;-82
2023/03/13 01:16:35;;;;;;;;;3.00;2.00;;;;;-145.09;100.00;59365.97;5117104;27;45473;-81
2023/03/13 01:19:12;;;;;;;;;1.00;1.00;;;;;-145.09;100.00;59365.97;5116138;27;45494;-80
2023/03/13 01:21:38;;;;;;;;;1.50;1.00;;;;;-145.09;100.00;59365.97;5081565;27;47159;-81
2023/03/13 01:24:04;;;;;;;;;2.00;2.00;;;;;-145.09;100.00;59365.97;5098717;27;45468;-81
2023/03/13 01:26:29;;;;;;;;;3.00;1.00;;;;;-145.09;100.00;59365.97;5117143;27;45357;-81
2023/03/13 01:28:55;;;;;;;;;1.00;1.00;;;;;-145.09;100.00;59365.97;5117016;27;45379;-81
2023/03/13 01:31:23;;;;;;;;;3.00;2.00;;;;;-145.09;100.00;59365.97;5116962;27;45471;-81
2023/03/13 01:33:50;;;;;;;;;2.00;0.50;;;;;-145.09;100.00;59365.97;5098512;27;45466;-81
2023/03/13 01:36:17;;;;;;;;;1.00;1.00;;;;;-145.09;100.00;59365.97;5081538;27;45380;-81
2023/03/13 01:38:43;;;;;;;;;2.75;2.75;;;;;-145.09;100.00;59365.97;5098745;27;45420;-81
2023/03/13 01:41:10;;;;;;;;;3.50;2.00;;;;;-145.09;100.00;59365.97;5098012;27;50432;-80
2023/03/13 01:43:36;;;;;;;;;2.25;1.00;;;;;-145.09;100.00;59365.97;5080997;27;45670;-81
2023/03/13 01:46:14;;;;;;;;;2.50;1.00;;;;;-145.09;100.00;59365.97;5116759;27;45373;-81
2023/03/13 01:48:57;;;;;;;;;2.00;2.00;;;;;-145.09;100.00;59365.97;5116860;27;45444;-81
2023/03/13 01:51:29;;;;;;;;;1.25;1.25;;;;;-145.09;100.00;59365.97;5081216;27;47390;-79
2023/03/13 01:54:12;;;;;;;;;3.00;1.25;;;;;-145.09;100.00;59365.97;5097851;27;45445;-81
2023/03/13 01:56:47;;;;;;;;;1.50;1.00;;;;;-145.09;100.00;59365.97;5097844;27;45313;-81
2023/03/13 01:59:16;;;;;;;;;3.00;2.00;;;;;-145.09;100.00;59365.97;5098250;27;45425;-81
2023/03/13 02:01:43;;;;;;;;;1.25;1.25;;;;;-145.09;100.00;59365.97;5098191;27;47559;-81
2023/03/13 02:04:08;;;;;;;;;1.75;1.25;;;;;-145.09;100.00;59365.97;5115338;27;45499;-81
2023/03/13 02:06:35;;;;;;;;;3.00;2.00;;;;;-145.09;100.00;59365.97;5115975;27;61952;-81
2023/03/13 02:09:04;;;;;;;;;2.00;2.00;;;;;-145.09;100.00;59365.97;5098238;27;45636;-81
2023/03/13 02:11:56;;;;;;;;;3.75;1.25;;;;;-145.09;100.00;59365.97;5097651;27;47299;-81
2023/03/13 02:14:25;;;;;;;;;3.00;1.25;;;;;-145.09;100.00;59365.97;5097996;27;45302;-81
2023/03/13 02:16:52;;;;;;;;;8.50;2.00;;;;;-145.09;100.00;59365.97;5098148;27;45451;-81
2023/03/13 02:19:42;;;;;;;;;2.50;2.00;;;;;-145.09;100.00;59365.97;5098147;27;45489;-81
2023/03/13 02:22:32;;;;;;;;;3.25;1.25;;;;;-145.09;100.00;59365.97;5116183;27;47195;-81
2023/03/13 02:25:09;;;;;;;;;2.00;2.00;;;;;-145.09;100.00;59365.97;5116024;27;45459;-80
2023/03/13 02:27:34;;;;;;;;;4.00;1.00;;;;;-145.09;100.00;59365.97;5097912;27;45452;-81
2023/03/13 02:30:00;;;;;;;;;4.50;2.00;;;;;-145.09;100.00;59365.97;5101049;27;45580;-81
2023/03/13 02:32:27;;;;;;;;;3.25;2.00;;;;;-145.09;100.00;59365.97;5101244;27;47193;-81
2023/03/13 02:34:56;;;;;;;;;2.50;1.00;;;;;-145.09;100.00;59365.97;5101115;27;45400;-81
2023/03/13 02:37:23;;;;;;;;;3.50;3.00;;;;;-145.09;100.00;59365.97;5101351;27;45434;-81
2023/03/13 02:39:50;;;;;;;;;2.00;2.00;;;;;-145.09;100.00;59365.97;5118332;27;45491;-81
2023/03/13 02:42:17;;;;;;;;;5.00;1.25;;;;;-145.09;100.00;59365.97;5100094;27;71561;-81
2023/03/13 02:44:45;;;;;;;;;2.50;2.00;;;;;-145.09;100.00;59365.97;5101046;27;45680;-81
2023/03/13 02:47:10;;;;;;;;;3.75;1.75;;;;;-145.09;100.00;59365.97;5101331;27;45454;-81
2023/03/13 02:49:36;;;;;;;;;4.25;2.00;;;;;-145.09;100.00;59365.97;5118823;27;65859;-81
2023/03/13 02:52:12;;;;;;;;;1.00;1.00;;;;;-145.09;100.00;59365.97;5119339;27;47440;-81
2023/03/13 02:54:38;;;;;;;;;2.50;1.25;;;;;-145.09;100.00;59365.97;5118867;27;45376;-81
2023/03/13 02:57:05;;;;;;;;;3.00;1.25;;;;;-145.09;100.00;59365.97;5100714;27;45539;-81
2023/03/13 02:59:31;;;;;;;;;4.50;2.00;;;;;-145.09;100.00;59365.97;5118329;27;45328;-79
2023/03/13 03:01:56;;;;;;;;;2.00;1.00;;;;;-145.09;100.00;59365.97;5119137;27;47409;-81
2023/03/13 03:04:24;;;;;;;;;2.00;2.00;;;;;-145.09;100.00;59365.97;5083908;27;45756;-81
2023/03/13 03:06:50;;;;;;;;;3.50;1.50;;;;;-145.09;100.00;59365.97;5119347;27;45441;-81
2023/03/13 03:09:16;;;;;;;;;3.00;1.00;;;;;-145.09;100.00;59365.97;5100539;27;45510;-81
2023/03/13 03:11:42;;;;;;;;;3.50;1.00;;;;;-145.09;100.00;59365.97;5119218;27;45423;-81
2023/03/13 03:14:08;;;;;;;;;4.00;2.00;;;;;-145.09;100.00;59365.97;5100629;27;45522;-81
2023/03/13 03:16:33;;;;;;;;;2.75;1.00;;;;;-145.09;100.00;59365.97;5100731;27;45947;-81
2023/03/13 03:18:59;;;;;;;;;4.00;1.25;;;;;-145.09;100.00;59365.97;5118250;27;63918;-81
2023/03/13 03:21:24;;;;;;;;;2.00;2.00;;;;;-145.09;100.00;59365.97;5118722;27;49687;-81
2023/03/13 03:23:50;;;;;;;;;2.50;2.00;;;;;-145.09;100.00;59365.97;5116485;27;70570;-81
2023/03/13 03:26:16;;;;;;;;;1.25;1.25;;;;;-145.09;100.00;59365.97;5100710;27;45459;-81
2023/03/13 03:28:41;;;;;;;;;1.25;1.25;;;;;-145.09;100.00;59365.97;5119165;27;45349;-81
2023/03/13 03:31:09;;;;;;;;;4.75;1.75;;;;;-145.09;100.00;59365.97;5117805;27;72051;-81
2023/03/13 03:33:35;;;;;;;;;7.00;3.00;;;;;-145.09;100.00;59365.97;5100274;27;45380;-81
2023/03/13 03:36:06;;;;;;;;;7.50;2.50;;;;;-145.09;100.00;59365.97;5117680;27;45383;-81
2023/03/13 03:38:31;;;;;;;;;1.75;1.75;;;;;-145.09;100.00;59365.97;5118420;27;45285;-81
2023/03/13 03:40:57;;;;;;;;;3.50;2.50;;;;;-145.09;100.00;59365.97;5117246;27;46006;-81
2023/03/13 03:43:22;;;;;;;;;2.00;1.25;;;;;-145.09;100.00;59365.97;5096523;27;45425;-81
2023/03/13 03:45:48;;;;;;;;;2.25;2.25;;;;;-145.09;100.00;59365.97;5096643;27;46455;-81
2023/03/13 03:48:13;;;;;;;;;2.50;1.00;;;;;-145.09;100.00;59365.97;5097269;27;63585;-82
2023/03/13 03:50:38;;;;;;;;;1.00;1.00;;;;;-145.09;100.00;59365.97;5097818;27;50194;-81
2023/03/13 03:53:04;;;;;;;;;2.50;2.00;;;;;-145.09;100.00;59365.97;5101364;27;68741;-81
2023/03/13 03:55:29;;;;;;;;;4.75;2.00;;;;;-145.09;100.00;59365.97;5118063;27;54749;-81
2023/03/13 03:57:54;;;;;;;;;5.25;3.00;;;;;-145.09;100.00;59365.97;5117367;27;63574;-81
2023/03/13 04:00:20;;;;;;;;;1.75;1.00;;;;;-145.09;100.00;59365.97;5099101;27;68794;-80
2023/03/13 04:02:46;;;;;;;;;2.00;1.00;;;;;-145.09;100.00;59365.97;5118393;27;45829;-81
2023/03/13 04:05:11;;;;;;;;;3.25;1.25;;;;;-145.09;100.00;59365.97;5100175;27;45393;-81
2023/03/13 04:07:36;;;;;;;;;2.75;2.00;;;;;-145.09;100.00;59365.97;5098783;27;65158;-81
2023/03/13 04:10:03;;;;;;;;;6.25;2.25;;;;;-145.09;100.00;59365.97;5118217;27;46436;-81
2023/03/13 04:12:28;;;;;;;;;1.75;1.75;;;;;-145.09;100.00;59365.97;5118160;27;45717;-81
2023/03/13 04:14:53;;;;;;;;;2.00;1.75;;;;;-145.09;100.00;59365.97;5099471;27;47895;-81
2023/03/13 04:17:19;;;;;;;;;5.25;3.00;;;;;-145.09;100.00;59365.97;5118087;27;45530;-81
2023/03/13 04:19:44;;;;;;;;;3.00;1.75;;;;;-145.09;100.00;59365.97;5099638;27;45350;-80
2023/03/13 04:22:09;;;;;;;;;2.75;2.00;;;;;-145.09;100.00;59365.97;5116799;27;66127;-80
2023/03/13 04:24:35;;;;;;;;;2.00;2.00;;;;;-145.09;100.00;59365.97;5099701;27;45416;-81
2023/03/13 04:27:02;;;;;;;;;2.00;1.00;;;;;-145.09;100.00;59365.97;5117423;27;63891;-81
2023/03/13 04:29:28;;;;;;;;;4.25;4.00;;;;;-145.09;100.00;59365.97;5117857;27;46674;-81
2023/03/13 04:31:53;;;;;;;;;3.00;2.00;;;;;-145.09;100.00;59365.97;5117952;27;45229;-80
2023/03/13 04:34:18;;;;;;;;;3.00;3.00;;;;;-145.09;100.00;59365.97;5117165;27;59114;-81
2023/03/13 04:36:44;;;;;;;;;2.75;2.00;;;;;-145.09;100.00;59365.97;5116849;27;58709;-81
2023/03/13 04:39:09;;;;;;;;;1.25;1.25;;;;;-145.09;100.00;59365.97;5081479;27;71348;-81
2023/03/13 04:41:34;;;;;;;;;1.00;0.00;;;;;-145.09;100.00;59365.97;5116866;27;65132;-81
2023/03/13 04:44:00;;;;;;;;;4.25;2.00;;;;;-145.09;100.00;59365.97;5079590;27;54043;-81
2023/03/13 04:46:25;;;;;;;;;2.00;2.00;;;;;-145.09;100.00;59365.97;5097038;27;45527;-81
2023/03/13 04:48:50;;;;;;;;;3.00;2.25;;;;;-145.09;100.00;59365.97;5097266;27;45352;-81
2023/03/13 04:51:16;;;;;;;;;8.00;2.00;;;;;-145.09;100.00;59365.97;5095391;27;64868;-81
2023/03/13 04:53:41;;;;;;;;;4.75;1.75;;;;;-145.09;100.00;59365.97;5087456;27;65887;-81
2023/03/13 04:56:07;;;;;;;;;6.00;2.00;;;;;-145.09;100.00;59365.97;5099074;27;45314;-81
2023/03/13 04:58:32;;;;;;;;;4.75;2.00;;;;;-145.09;100.00;59365.97;5098764;27;46409;-81
2023/03/13 05:00:58;;;;;;;;;5.50;2.00;;;;;-145.09;100.00;59365.97;5098192;27;63691;-81
2023/03/13 05:03:23;;;;;;;;;3.00;1.50;;;;;-145.09;100.00;59365.97;5116249;27;45343;-80
2023/03/13 05:05:49;;;;;;;;;2.00;1.00;;;;;-145.09;100.00;59365.97;5098897;27;45465;-81
2023/03/13 05:08:14;;;;;;;;;7.75;2.00;;;;;-145.09;100.00;59365.97;5097904;27;70007;-80
2023/03/13 05:10:43;;;;;;;;;2.50;2.00;;;;;-145.09;100.00;59365.97;5097926;27;67174;-81
2023/03/13 05:13:08;;;;;;;;;3.00;2.25;;;;;-145.09;100.00;59365.97;5098986;27;45246;-81
2023/03/13 05:15:33;;;;;;;;;2.00;2.00;;;;;-145.09;100.00;59365.97;5098802;27;45684;-80
2023/03/13 05:17:59;;;;;;;;;4.25;2.00;;;;;-145.09;100.00;59365.97;5098670;27;45393;-81
2023/03/13 05:20:24;;;;;;;;;2.75;2.00;;;;;-145.09;100.00;59365.97;5097695;27;63848;-80
2023/03/13 05:22:49;;;;;;;;;2.50;2.50;;;;;-145.09;100.00;59365.97;5098874;27;45561;-81
2023/03/13 05:25:15;;;;;;;;;3.75;1.75;;;;;-145.09;100.00;59365.97;5098737;27;45335;-80
2023/03/13 05:27:40;;;;;;;;;5.25;3.50;;;;;-145.09;100.00;59365.97;5115922;27;73003;-80
2023/03/13 05:30:06;;;;;;;;;4.25;3.00;;;;;-145.09;100.00;59365.97;5116884;27;46370;-81
2023/03/13 05:32:31;;;;;;;;;3.00;2.00;;;;;-145.09;100.00;59365.97;5117129;27;45527;-81
2023/03/13 05:34:57;;;;;;;;;7.75;3.00;;;;;-145.09;100.00;59365.97;5097528;27;63863;-81
2023/03/13 05:37:22;;;;;;;;;4.75;2.50;;;;;-145.09;100.00;59365.97;5116566;27;55104;-81
2023/03/13 05:39:47;;;;;;;;;4.00;2.75;;;;;-145.09;100.00;59365.97;5098018;27;60432;-81
2023/03/13 05:42:13;;;;;;;;;7.50;4.00;;;;;-145.09;100.00;59365.97;5093794;27;59538;-80
2023/03/13 05:44:38;;;;;;;;;2.00;2.00;;;;;-145.09;100.00;59365.97;5077509;27;60630;-81
2023/03/13 05:47:03;;;;;;;;;4.75;3.50;;;;;-145.09;100.00;59365.97;5095643;27;60933;-80
2023/03/13 05:49:29;;;;;;;;;6.25;4.00;;;;;-145.09;100.00;59365.97;5095962;27;45480;-81
2023/03/13 05:51:54;;;;;;;;;6.25;3.50;;;;;-145.09;100.00;59365.97;5095671;27;57743;-81
2023/03/13 05:54:20;;;;;;;;;5.50;2.25;;;;;-145.09;100.00;59365.97;5110908;27;58449;-81
2023/03/13 05:56:47;;;;;;;;;4.75;3.25;;;;;-145.09;100.00;59365.97;5116670;27;45489;-81
2023/03/13 05:59:12;;;;;;;;;5.25;2.25;;;;;-145.09;100.00;59365.97;5098699;27;45804;-81
2023/03/13 06:01:38;;;;;;;;;4.00;3.50;;;;;-145.09;100.00;59365.97;5116877;27;45357;-81
2023/03/13 06:04:03;;;;;;;;;6.25;3.00;;;;;-145.09;100.00;59365.97;5117734;27;61812;-80
2023/03/13 06:06:28;;;;;;;;;9.75;2.00;;;;;-145.09;100.00;59365.97;5084741;27;48130;-81
2023/03/13 06:08:54;;;;;;;;;2.50;2.00;;;;;-145.09;100.00;59365.97;5119740;27;65726;-81
2023/03/13 06:11:19;;;;;;;;;5.25;2.50;;;;;-145.09;100.00;59365.97;5101204;27;57400;-80
2023/03/13 06:13:44;;;;;;;;;5.00;3.00;;;;;-145.09;100.00;59365.97;5120148;27;45459;-80
2023/03/13 06:16:10;;;;;;;;;4.50;2.00;;;;;-145.09;100.00;59365.97;5119489;27;61533;-81
2023/03/13 06:18:35;;;;;;;;;3.75;3.00;;;;;-145.09;100.00;59365.97;5118801;27;66398;-81
2023/03/13 06:21:02;;;;;;;;;7.50;3.00;;;;;-145.09;100.00;59365.97;5119772;27;51212;-81
2023/03/13 06:23:27;;;;;;;;;2.75;2.00;;;;;-145.09;100.00;59365.97;5101598;27;45429;-80
2023/03/13 06:25:53;;;;;;;;;3.00;3.00;;;;;-145.09;100.00;59365.97;5101628;27;46462;-81
2023/03/13 06:28:19;;;;;;;;;3.50;2.00;;;;;-145.09;100.00;59365.97;5118641;27;45569;-81
2023/03/13 06:30:44;;;;;;;;;6.50;2.50;;;;;-145.09;100.00;59365.97;5120072;27;45351;-81
2023/03/13 06:33:10;;;;;;;;;3.50;3.00;;;;;-145.09;100.00;59365.97;5101234;27;45373;-80
2023/03/13 06:35:40;;;;;;;;;4.00;2.00;;;;;-145.09;100.00;59365.97;5119696;27;45357;-81
2023/03/13 06:38:05;;;;;;;;;4.25;3.00;;;;;-145.09;100.00;59365.97;5101346;27;45474;-80
2023/03/13 06:40:30;;;;;;;;;4.00;2.00;;;;;-145.09;100.00;59365.97;5120059;27;45457;-81
2023/03/13 06:42:56;;;;;;;;;3.25;1.00;;;;;-145.09;100.00;59365.97;5108619;27;63994;-80
2023/03/13 06:45:21;;;;;;;;;3.00;2.00;;;;;-145.09;100.00;59365.97;5098864;27;46763;-80
2023/03/13 06:47:47;;;;;;;;;2.00;2.00;;;;;-145.09;100.00;59365.97;5098590;27;45399;-81
2023/03/13 06:50:13;;;;;;;;;4.25;3.00;;;;;-145.09;100.00;59365.97;5097942;27;45459;-80
2023/03/13 06:52:38;;;;;;;;;3.00;2.00;;;;;-145.09;100.00;59365.97;5099874;27;45447;-80
2023/03/13 06:55:04;;;;;;;;;4.25;3.50;;;;;-145.09;100.00;59365.97;5118522;27;69496;-81
2023/03/13 06:57:29;;;;;;;;;0.00;0.00;;;;;-145.09;100.00;59365.97;5120521;27;45887;-88
2023/03/13 06:59:55;;;;;;;;;2.75;2.00;;;;;-145.09;100.00;59365.97;5120558;27;45437;-88
2023/03/13 07:02:23;;;;;;;;;4.00;2.50;;;;;-145.09;100.00;59365.97;5119037;27;45192;-85
2023/03/13 07:04:48;;;;;;;;;2.50;1.00;;;;;-145.09;100.00;59365.97;5101433;27;45698;-86
2023/03/13 07:07:14;;;;;;;;;4.75;4.00;;;;;-145.09;100.00;59365.97;5101337;27;46058;-82
2023/03/13 07:09:39;;;;;;;;;1.00;1.00;;;;;-145.09;100.00;59365.97;5118834;27;58390;-85
2023/03/13 07:12:05;;;;;;;;;3.25;2.00;;;;;-145.09;100.00;59365.97;5101329;27;45504;-86
2023/03/13 07:14:30;;;;;;;;;2.50;2.00;;;;;-145.09;100.00;59365.97;5100452;27;46363;-85
2023/03/13 07:16:58;;;;;;;;;2.00;2.00;;;;;-145.09;100.00;59365.97;5119042;27;55728;-87
2023/03/13 07:19:23;;;;;;;;;3.25;1.75;;;;;-145.09;100.00;59365.97;5101581;27;45324;-87
2023/03/13 07:21:49;;;;;;;;;3.50;3.00;;;;;-145.09;100.00;59365.97;5119778;27;45699;-85
2023/03/13 07:24:14;;;;;;;;;3.00;1.75;;;;;-145.09;100.00;59365.97;5101040;27;47208;-86
2023/03/13 07:26:40;;;;;;;;;3.00;2.00;;;;;-145.09;100.00;59365.97;5119182;27;45306;-85
2023/03/13 07:29:15;;;;;;;;;4.00;3.00;;;;;-145.09;100.00;59365.97;5119384;27;45434;-85
2023/03/13 07:31:41;;;;;;;;;3.25;1.75;;;;;-145.09;100.00;59365.97;5102433;27;45569;-86
2023/03/13 07:34:06;;;;;;;;;3.75;2.00;;;;;-145.09;100.00;59365.97;5100377;27;67120;-88
2023/03/13 07:36:34;;;;;;;;;2.25;2.00;;;;;-145.09;100.00;59365.97;5101526;27;45394;-85
2023/03/13 07:38:59;;;;;;;;;0.75;0.00;;;;;-145.09;100.00;59365.97;5100248;27;45455;-84
2023/03/13 07:41:24;;;;;;;;;7.00;2.00;;;;;-145.09;100.00;59365.97;5116988;27;45320;-85
2023/03/13 07:43:50;;;;;;;;;3.25;1.50;;;;;-145.09;100.00;59365.97;5081331;27;66083;-86
2023/03/13 07:46:17;;;;;;;;;4.25;3.75;;;;;-145.09;100.00;59365.97;5097794;27;45626;-84
2023/03/13 07:48:43;;;;;;;;;4.75;3.00;;;;;-145.09;100.00;59365.97;5098213;27;45282;-81
2023/03/13 07:51:16;;;;;;;;;3.00;2.00;;;;;-145.09;100.00;59365.97;5098041;27;45431;-85
2023/03/13 07:53:42;;;;;;;;;4.75;3.75;;;;;-145.09;100.00;59365.97;5112908;27;47290;-85
2023/03/13 07:56:13;;;;;;;;;3.00;2.00;;;;;-145.09;100.00;59365.97;5117372;27;45734;-86
2023/03/13 07:58:43;;;;;;;;;3.00;2.00;;;;;-145.09;100.00;59365.97;5134107;27;45297;-85
2023/03/13 08:01:13;;;;;;;;;2.50;2.25;;;;;-145.09;100.00;59365.97;5117282;27;45486;-84
2023/03/13 08:03:38;;;;;;;;;3.00;2.00;;;;;-145.09;100.00;59365.97;5118223;27;46602;-83
2023/03/13 08:06:13;;;;;;;;;2.75;2.00;;;;;-145.09;100.00;59365.97;5116834;27;45624;-83
2023/03/13 08:08:39;;;;;;;;;3.50;2.00;;;;;-145.09;100.00;59365.97;5117122;27;45326;-84
2023/03/13 08:11:07;;;;;;;;;2.25;2.00;;;;;-145.09;100.00;59365.97;5134462;27;45542;-85
2023/03/13 08:13:33;;;;;;;;;1.75;1.75;;;;;-145.09;100.00;59365.97;5133814;27;47332;-84
2023/03/13 08:16:19;;;;;;;;;3.50;3.00;;;;;-145.09;100.00;59365.97;5126732;27;45978;-84
2023/03/13 08:18:46;;;;;;;;;4.00;2.25;;;;;-145.09;100.00;59365.97;5116112;27;45322;-85
2023/03/13 08:21:17;;;;;;;;;2.00;2.00;;;;;-145.09;100.00;59365.97;5116672;27;46851;-85
2023/03/13 08:23:43;;;;;;;;;3.25;2.75;;;;;-145.09;100.00;59365.97;5099480;27;46417;-85
2023/03/13 08:26:14;;;;;;;;;3.00;3.00;;;;;-145.09;100.00;59365.97;5098986;27;45451;-85
2023/03/13 08:28:40;;;;;;;;;3.00;2.00;;;;;-145.09;100.00;59365.97;5117785;27;45446;-85
2023/03/13 08:31:16;;;;;;;;;3.25;2.75;;;;;-145.09;100.00;59365.97;5116598;27;45555;-84
2023/03/13 08:33:42;;;;;;;;;3.50;2.00;;;;;-145.09;100.00;59365.97;5095805;27;47225;-83
2023/03/13 08:36:19;;;;;;;;;3.00;3.00;;;;;-145.09;100.00;59365.97;5077805;27;45625;-85
2023/03/13 08:38:46;;;;;;;;;3.75;2.00;;;;;-145.09;100.00;59365.97;5078026;27;45360;-85
2023/03/13 08:41:13;;;;;;;;;6.75;2.00;;;;;-145.09;100.00;59365.97;5097245;27;45346;-84
2023/03/13 08:43:38;;;;;;;;;1.00;1.00;;;;;-145.09;100.00;59365.97;5090889;27;45414;-84
2023/03/13 08:46:04;;;;;;;;;3.75;2.00;;;;;-145.09;100.00;59365.97;5078176;27;60044;-84
2023/03/13 08:48:29;;;;;;;;;3.00;2.00;;;;;-145.09;100.00;59365.97;5078789;27;45560;-84
2023/03/13 08:51:02;;;;;;;;;2.00;2.00;;;;;-145.09;100.00;59365.97;5078551;27;45484;-84
2023/03/13 08:53:28;;;;;;;;;3.00;2.00;;;;;-145.09;100.00;59365.97;5086486;27;46442;-84
2023/03/13 08:55:53;;;;;;;;;2.00;2.00;;;;;-145.09;100.00;59365.97;5099070;27;45358;-85
2023/03/13 08:58:19;;;;;;;;;2.75;2.00;;;;;-145.09;100.00;59365.97;5116680;27;52924;-84
2023/03/13 09:00:44;;;;;;;;;3.25;1.50;;;;;-145.09;100.00;59365.97;5117312;27;50949;-85
2023/03/13 09:03:10;;;;;;;;;0.00;0.00;;;;;-145.09;100.00;59365.97;5117425;27;45428;-84
2023/03/13 09:05:36;;;;;;;;;2.25;1.25;;;;;-145.09;100.00;59365.97;5116555;27;62420;-84
2023/03/13 09:08:02;;;;;;;;;5.50;2.00;;;;;-145.09;100.00;59365.97;5098252;27;45472;-84
2023/03/13 09:10:27;;;;;;;;;2.00;2.00;;;;;-145.09;100.00;59365.97;5097859;27;56319;-83
2023/03/13 09:12:52;;;;;;;;;1.00;1.00;;;;;-145.09;100.00;59365.97;5076444;27;61282;-85
2023/03/13 09:15:18;;;;;;;;;2.25;2.00;;;;;-145.09;100.00;59365.97;5096769;27;61324;-86
2023/03/13 09:17:43;;;;;;;;;3.00;3.00;;;;;-145.09;100.00;59365.97;5096307;27;52601;-84
2023/03/13 09:20:09;;;;;;;;;4.00;2.00;;;;;-145.09;100.00;59365.97;5077491;27;57305;-84
2023/03/13 09:22:34;;;;;;;;;2.25;1.00;;;;;-145.09;100.00;59365.97;5078188;27;45559;-84
2023/03/13 09:25:00;;;;;;;;;2.25;2.25;;;;;-145.09;100.00;59365.97;5061110;27;51253;-84
2023/03/13 09:27:27;;;;;;;;;2.75;1.75;;;;;-145.09;100.00;59365.97;5096279;27;45333;-86
2023/03/13 09:29:52;;;;;;;;;1.50;1.00;;;;;-145.09;100.00;59365.97;5078515;27;45335;-86
2023/03/13 09:32:19;;;;;;;;;2.50;2.00;;;;;-145.09;100.00;59365.97;5077760;27;45673;-85
2023/03/13 09:34:45;;;;;;;;;2.00;1.75;;;;;-145.09;100.00;59365.97;5077705;27;45771;-86
2023/03/13 09:37:10;;;;;;;;;2.75;1.75;;;;;-145.09;100.00;59365.97;5078297;27;45392;-85
2023/03/13 09:39:35;;;;;;;;;2.25;2.00;;;;;-145.09;100.00;59365.97;5095252;27;59923;-85
2023/03/13 09:42:12;;;;;;;;;2.75;2.50;;;;;-145.09;100.00;59365.97;5062707;27;59676;-85
2023/03/13 09:44:44;;;;;;;;;2.50;1.50;;;;;-145.09;100.00;59365.97;5098232;27;45683;-84
2023/03/13 09:47:17;;;;;;;;;2.50;2.00;;;;;-145.09;100.00;59365.97;5116742;27;45397;-84
2023/03/13 09:49:54;;;;;;;;;7.50;3.00;;;;;-145.09;100.00;59365.97;5080963;27;45504;-84
2023/03/13 09:52:29;;;;;;;;;3.75;3.00;;;;;-145.09;100.00;59365.97;5098223;27;46242;-84
2023/03/13 09:55:03;;;;;;;;;4.00;2.00;;;;;-145.09;100.00;59365.97;5097550;27;45950;-84
2023/03/13 09:57:35;;;;;;;;;2.75;2.00;;;;;-145.09;100.00;59365.97;5116355;27;45431;-84
2023/03/13 10:00:30;;;;;;;;;3.50;2.25;;;;;-145.09;100.00;59365.97;5097636;27;45591;-83
2023/03/13 10:03:06;;;;;;;;;4.00;2.00;;;;;-145.09;100.00;59365.97;5097983;27;45385;-83
2023/03/13 10:05:32;;;;;;;;;2.25;2.25;;;;;-145.09;100.00;59365.97;5098149;27;45342;-85
2023/03/13 10:08:13;;;;;;;;;2.50;2.00;;;;;-145.09;100.00;59365.97;5096611;27;45526;-85
2023/03/13 10:10:41;;;;;;;;;2.00;2.00;;;;;-145.09;100.00;59365.97;5097545;27;45408;-85
2023/03/13 10:13:27;;;;;;;;;3.75;1.75;;;;;-145.09;100.00;59365.97;5097527;27;47183;-84
2023/03/13 10:15:57;;;;;;;;;1.75;1.75;;;;;-145.09;100.00;59365.97;5094247;27;45581;-85
2023/03/13 10:18:23;;;;;;;;;3.00;1.75;;;;;-145.09;100.00;59365.97;5077533;27;45401;-84
2023/03/13 10:20:59;;;;;;;;;1.50;1.50;;;;;-145.09;100.00;59365.97;5108696;27;45547;-84
2023/03/13 10:23:48;;;;;;;;;0.00;0.00;;;;;-145.09;100.00;59365.97;5097231;27;47864;-84
2023/03/13 10:26:21;;;;;;;;;1.75;1.50;;;;;-145.09;100.00;59365.97;5102657;27;45384;-82
2023/03/13 10:28:47;;;;;;;;;1.00;1.00;;;;;-145.09;100.00;59365.97;5109532;27;45374;-85
2023/03/13 10:31:45;;;;;;;;;1.00;1.00;;;;;-145.09;100.00;59365.97;5097234;27;45362;-83
2023/03/13 10:34:13;;;;;;;;;1.50;1.00;;;;;-145.09;100.00;59365.97;5015433;28;48263;-84
2023/03/13 10:36:41;;;;;;;;;1.00;0.75;;;;;-145.09;100.00;59365.97;5032386;28;66148;-84
2023/03/13 10:39:11;;;;;;;;;1.00;0.75;;;;;-145.09;100.00;59365.97;5015313;28;45360;-85
2023/03/13 10:41:37;;;;;;;;;2.00;0.00;;;;;-145.09;100.00;59365.97;5015978;28;45478;-85
2023/03/13 10:44:05;;;;;;;;;1.50;1.00;;;;;-145.09;100.00;59365.97;5070306;28;45545;-85
2023/03/13 10:46:32;;;;;;;;;3.25;1.00;;;;;-145.09;100.00;59365.97;5072680;28;45629;-83
2023/03/13 10:49:03;;;;;;;;;3.00;1.00;;;;;-145.09;100.00;59365.97;5072986;28;45594;-86
2023/03/13 10:51:49;;;;;;;;;2.00;0.50;;;;;-145.09;100.00;59365.97;5046929;28;45342;-85
2023/03/13 10:54:22;;;;;;;;;3.50;1.00;;;;;-145.09;100.00;59365.97;5054979;28;46368;-86
2023/03/13 10:56:48;;;;;;;;;0.00;0.00;;;;;-145.09;100.00;59365.97;5040763;28;45390;-86
2023/03/13 10:59:20;;;;;;;;;2.25;0.00;;;;;-145.09;100.00;59365.97;5018938;28;45523;-84
2023/03/13 11:01:46;;;;;;;;;2.00;1.00;;;;;-145.09;100.00;59365.97;5019330;28;45462;-84
2023/03/13 11:04:19;;;;;;;;;2.00;1.50;;;;;-145.09;100.00;59365.97;5018881;28;46887;-85
2023/03/13 11:06:51;;;;;;;;;1.25;0.75;;;;;-145.09;100.00;59365.97;5048838;28;45484;-84
2023/03/13 11:09:17;;;;;;;;;1.00;1.00;;;;;-145.09;100.00;59365.97;5037488;27;45393;-85
2023/03/13 11:11:52;;;;;;;;;1.50;0.50;;;;;-145.09;100.00;59365.97;5112493;27;45583;-84